sensor_id;sensor_type;location;lat;lon;timestamp;pressure;altitude;pressure_sealevel;temperature;humidity
2405;BME280;1213;43.206;27.922;2024-03-02T00:01:07;101226.50;;;9.83;100.00
2405;BME280;1213;43.206;27.922;2024-03-02T00:03:32;101230.81;;;9.84;100.00
2405;BME280;1213;43.206;27.922;2024-03-02T00:05:58;101232.94;;;9.77;100.00
2405;BME280;1213;43.206;27.922;2024-03-02T00:08:25;101236.50;;;9.76;100.00
2405;BME280;1213;43.206;27.922;2024-03-02T00:10:51;101237.06;;;9.81;100.00
2405;BME280;1213;43.206;27.922;2024-03-02T00:13:20;101215.13;;;9.82;100.00
2405;BME280;1213;43.206;27.922;2024-03-02T00:15:51;101221.41;;;9.80;100.00
2405;BME280;1213;43.206;27.922;2024-03-02T00:18:24;101228.94;;;9.86;100.00
2405;BME280;1213;43.206;27.922;2024-03-02T00:20:53;101216.75;;;9.85;100.00
2405;BME280;1213;43.206;27.922;2024-03-02T00:23:20;101225.28;;;9.88;100.00
2405;BME280;1213;43.206;27.922;2024-03-02T00:25:49;101214.47;;;9.79;100.00
2405;BME280;1213;43.206;27.922;2024-03-02T00:30:57;101210.81;;;9.81;100.00
2405;BME280;1213;43.206;27.922;2024-03-02T00:33:26;101211.66;;;9.82;100.00
2405;BME280;1213;43.206;27.922;2024-03-02T00:35:53;101198.72;;;9.79;100.00
2405;BME280;1213;43.206;27.922;2024-03-02T00:38:18;101201.69;;;9.72;100.00
2405;BME280;1213;43.206;27.922;2024-03-02T00:40:45;101192.13;;;9.71;100.00
2405;BME280;1213;43.206;27.922;2024-03-02T00:43:43;101179.25;;;9.67;100.00
2405;BME280;1213;43.206;27.922;2024-03-02T00:46:15;101176.22;;;9.74;100.00
2405;BME280;1213;43.206;27.922;2024-03-02T00:48:55;101168.53;;;9.71;100.00
2405;BME280;1213;43.206;27.922;2024-03-02T00:51:23;101163.88;;;9.61;100.00
2405;BME280;1213;43.206;27.922;2024-03-02T00:53:51;101157.00;;;9.58;100.00
2405;BME280;1213;43.206;27.922;2024-03-02T00:56:17;101160.16;;;9.49;100.00
2405;BME280;1213;43.206;27.922;2024-03-02T00:58:44;101168.03;;;9.49;100.00
2405;BME280;1213;43.206;27.922;2024-03-02T01:01:09;101172.25;;;9.52;100.00
2405;BME280;1213;43.206;27.922;2024-03-02T01:03:35;101179.97;;;9.55;100.00
2405;BME280;1213;43.206;27.922;2024-03-02T01:06:00;101173.78;;;9.56;100.00
2405;BME280;1213;43.206;27.922;2024-03-02T01:08:26;101175.56;;;9.55;100.00
2405;BME280;1213;43.206;27.922;2024-03-02T01:10:52;101168.63;;;9.54;100.00
2405;BME280;1213;43.206;27.922;2024-03-02T01:13:17;101159.72;;;9.57;100.00
2405;BME280;1213;43.206;27.922;2024-03-02T01:15:43;101154.91;;;9.49;100.00
2405;BME280;1213;43.206;27.922;2024-03-02T01:18:09;101159.22;;;9.50;100.00
2405;BME280;1213;43.206;27.922;2024-03-02T01:20:34;101162.69;;;9.51;100.00
2405;BME280;1213;43.206;27.922;2024-03-02T01:23:00;101150.41;;;9.51;100.00
2405;BME280;1213;43.206;27.922;2024-03-02T01:25:25;101142.91;;;9.45;100.00
2405;BME280;1213;43.206;27.922;2024-03-02T01:27:50;101138.75;;;9.41;100.00
2405;BME280;1213;43.206;27.922;2024-03-02T01:30:16;101129.03;;;9.43;100.00
2405;BME280;1213;43.206;27.922;2024-03-02T01:32:41;101128.34;;;9.39;100.00
2405;BME280;1213;43.206;27.922;2024-03-02T01:35:07;101111.88;;;9.37;100.00
2405;BME280;1213;43.206;27.922;2024-03-02T01:37:33;101120.59;;;9.38;100.00
2405;BME280;1213;43.206;27.922;2024-03-02T01:39:58;101120.81;;;9.33;100.00
2405;BME280;1213;43.206;27.922;2024-03-02T01:42:24;101130.81;;;9.27;100.00
2405;BME280;1213;43.206;27.922;2024-03-02T01:44:49;101149.25;;;9.25;100.00
2405;BME280;1213;43.206;27.922;2024-03-02T01:47:15;101144.50;;;9.32;100.00
2405;BME280;1213;43.206;27.922;2024-03-02T01:49:40;101131.97;;;9.21;100.00
2405;BME280;1213;43.206;27.922;2024-03-02T01:52:07;101095.63;;;9.15;100.00
2405;BME280;1213;43.206;27.922;2024-03-02T01:54:32;101083.44;;;9.14;100.00
2405;BME280;1213;43.206;27.922;2024-03-02T01:56:58;101087.00;;;9.13;100.00
2405;BME280;1213;43.206;27.922;2024-03-02T01:59:24;101093.50;;;9.06;100.00
2405;BME280;1213;43.206;27.922;2024-03-02T02:01:49;101094.84;;;9.13;100.00
2405;BME280;1213;43.206;27.922;2024-03-02T02:04:14;101095.28;;;9.05;100.00
2405;BME280;1213;43.206;27.922;2024-03-02T02:06:40;101087.69;;;9.01;100.00
2405;BME280;1213;43.206;27.922;2024-03-02T02:09:06;101086.22;;;8.95;100.00
2405;BME280;1213;43.206;27.922;2024-03-02T02:11:33;101089.09;;;8.90;100.00
2405;BME280;1213;43.206;27.922;2024-03-02T02:13:59;101089.19;;;8.89;100.00
2405;BME280;1213;43.206;27.922;2024-03-02T02:16:24;101060.97;;;8.78;100.00
2405;BME280;1213;43.206;27.922;2024-03-02T02:18:50;101062.56;;;8.81;100.00
2405;BME280;1213;43.206;27.922;2024-03-02T02:21:16;101063.81;;;8.74;100.00
2405;BME280;1213;43.206;27.922;2024-03-02T02:23:41;101066.53;;;8.72;100.00
2405;BME280;1213;43.206;27.922;2024-03-02T02:26:11;101080.03;;;8.65;100.00
2405;BME280;1213;43.206;27.922;2024-03-02T02:28:37;101085.09;;;8.68;100.00
2405;BME280;1213;43.206;27.922;2024-03-02T02:31:02;101083.41;;;8.67;100.00
2405;BME280;1213;43.206;27.922;2024-03-02T02:33:28;101077.50;;;8.63;100.00
2405;BME280;1213;43.206;27.922;2024-03-02T02:35:54;101081.09;;;8.60;100.00
2405;BME280;1213;43.206;27.922;2024-03-02T02:38:19;101080.19;;;8.61;100.00
2405;BME280;1213;43.206;27.922;2024-03-02T02:40:45;101088.59;;;8.51;100.00
2405;BME280;1213;43.206;27.922;2024-03-02T02:43:11;101107.69;;;8.53;100.00
2405;BME280;1213;43.206;27.922;2024-03-02T02:45:36;101126.66;;;8.58;100.00
2405;BME280;1213;43.206;27.922;2024-03-02T02:48:01;101115.84;;;8.64;100.00
2405;BME280;1213;43.206;27.922;2024-03-02T02:50:28;101120.81;;;8.69;100.00
2405;BME280;1213;43.206;27.922;2024-03-02T02:52:53;101116.06;;;8.77;100.00
2405;BME280;1213;43.206;27.922;2024-03-02T02:55:19;101122.63;;;8.84;100.00
2405;BME280;1213;43.206;27.922;2024-03-02T02:57:44;101127.41;;;8.93;100.00
2405;BME280;1213;43.206;27.922;2024-03-02T03:00:12;101121.66;;;9.02;100.00
2405;BME280;1213;43.206;27.922;2024-03-02T03:02:44;101136.47;;;9.03;100.00
2405;BME280;1213;43.206;27.922;2024-03-02T03:05:11;101141.28;;;9.11;100.00
2405;BME280;1213;43.206;27.922;2024-03-02T03:07:39;101141.63;;;9.21;100.00
2405;BME280;1213;43.206;27.922;2024-03-02T03:10:05;101139.09;;;9.19;100.00
2405;BME280;1213;43.206;27.922;2024-03-02T03:12:32;101129.28;;;9.23;100.00
2405;BME280;1213;43.206;27.922;2024-03-02T03:14:57;101128.44;;;9.22;100.00
2405;BME280;1213;43.206;27.922;2024-03-02T03:17:23;101129.13;;;9.26;100.00
2405;BME280;1213;43.206;27.922;2024-03-02T03:19:49;101120.41;;;9.25;100.00
2405;BME280;1213;43.206;27.922;2024-03-02T03:22:15;101122.44;;;9.20;100.00
2405;BME280;1213;43.206;27.922;2024-03-02T03:24:40;101113.28;;;9.11;100.00
2405;BME280;1213;43.206;27.922;2024-03-02T03:27:06;101109.91;;;9.09;100.00
2405;BME280;1213;43.206;27.922;2024-03-02T03:29:32;101119.78;;;9.04;100.00
2405;BME280;1213;43.206;27.922;2024-03-02T03:31:57;101120.47;;;8.92;100.00
2405;BME280;1213;43.206;27.922;2024-03-02T03:34:22;101120.63;;;8.89;100.00
2405;BME280;1213;43.206;27.922;2024-03-02T03:36:48;101116.41;;;8.86;100.00
2405;BME280;1213;43.206;27.922;2024-03-02T03:39:13;101120.19;;;8.81;100.00
2405;BME280;1213;43.206;27.922;2024-03-02T03:41:40;101119.53;;;8.77;100.00
2405;BME280;1213;43.206;27.922;2024-03-02T03:44:06;101117.88;;;8.75;100.00
2405;BME280;1213;43.206;27.922;2024-03-02T03:46:31;101110.13;;;8.73;100.00
2405;BME280;1213;43.206;27.922;2024-03-02T03:48:56;101115.53;;;8.70;100.00
2405;BME280;1213;43.206;27.922;2024-03-02T03:51:22;101097.25;;;8.69;100.00
2405;BME280;1213;43.206;27.922;2024-03-02T03:53:48;101099.38;;;8.62;100.00
2405;BME280;1213;43.206;27.922;2024-03-02T03:56:13;101111.38;;;8.66;100.00
2405;BME280;1213;43.206;27.922;2024-03-02T03:58:39;101108.59;;;8.69;100.00
2405;BME280;1213;43.206;27.922;2024-03-02T04:01:04;101109.78;;;8.64;100.00
2405;BME280;1213;43.206;27.922;2024-03-02T04:03:30;101109.16;;;8.58;100.00
2405;BME280;1213;43.206;27.922;2024-03-02T04:05:56;101113.78;;;8.53;100.00
2405;BME280;1213;43.206;27.922;2024-03-02T04:08:21;101108.94;;;8.46;100.00
2405;BME280;1213;43.206;27.922;2024-03-02T04:10:47;101120.44;;;8.43;100.00
2405;BME280;1213;43.206;27.922;2024-03-02T04:13:12;101122.50;;;8.37;100.00
2405;BME280;1213;43.206;27.922;2024-03-02T04:15:37;101120.66;;;8.39;100.00
2405;BME280;1213;43.206;27.922;2024-03-02T04:18:03;101127.84;;;8.35;100.00
2405;BME280;1213;43.206;27.922;2024-03-02T04:20:28;101121.53;;;8.39;100.00
2405;BME280;1213;43.206;27.922;2024-03-02T04:22:55;101132.06;;;8.38;100.00
2405;BME280;1213;43.206;27.922;2024-03-02T04:25:20;101133.81;;;8.37;100.00
2405;BME280;1213;43.206;27.922;2024-03-02T04:27:46;101129.53;;;8.36;100.00
2405;BME280;1213;43.206;27.922;2024-03-02T04:30:12;101124.28;;;8.36;100.00
2405;BME280;1213;43.206;27.922;2024-03-02T04:32:38;101120.03;;;8.33;100.00
2405;BME280;1213;43.206;27.922;2024-03-02T04:35:04;101117.56;;;8.30;100.00
2405;BME280;1213;43.206;27.922;2024-03-02T04:37:33;101117.56;;;8.30;100.00
2405;BME280;1213;43.206;27.922;2024-03-02T04:39:58;101122.72;;;8.32;100.00
2405;BME280;1213;43.206;27.922;2024-03-02T04:42:23;101122.66;;;8.33;100.00
2405;BME280;1213;43.206;27.922;2024-03-02T04:44:50;101127.97;;;8.32;100.00
2405;BME280;1213;43.206;27.922;2024-03-02T04:47:16;101130.59;;;8.32;100.00
2405;BME280;1213;43.206;27.922;2024-03-02T04:49:41;101127.84;;;8.35;100.00
2405;BME280;1213;43.206;27.922;2024-03-02T04:52:06;101121.81;;;8.33;100.00
2405;BME280;1213;43.206;27.922;2024-03-02T04:54:33;101125.22;;;8.35;100.00
2405;BME280;1213;43.206;27.922;2024-03-02T04:57:18;101121.53;;;8.39;100.00
2405;BME280;1213;43.206;27.922;2024-03-02T04:59:44;101124.06;;;8.41;100.00
2405;BME280;1213;43.206;27.922;2024-03-02T05:02:09;101125.22;;;8.35;100.00
2405;BME280;1213;43.206;27.922;2024-03-02T05:04:34;101127.03;;;8.33;100.00
2405;BME280;1213;43.206;27.922;2024-03-02T05:07:00;101114.75;;;8.35;100.00
2405;BME280;1213;43.206;27.922;2024-03-02T05:09:25;101116.34;;;8.38;100.00
2405;BME280;1213;43.206;27.922;2024-03-02T05:11:50;101125.66;;;8.43;100.00
2405;BME280;1213;43.206;27.922;2024-03-02T05:14:40;101121.13;;;8.47;100.00
2405;BME280;1213;43.206;27.922;2024-03-02T05:17:06;101117.31;;;8.52;100.00
2405;BME280;1213;43.206;27.922;2024-03-02T05:19:31;101117.28;;;8.54;100.00
2405;BME280;1213;43.206;27.922;2024-03-02T05:21:56;101120.38;;;8.60;100.00
2405;BME280;1213;43.206;27.922;2024-03-02T05:24:22;101110.44;;;8.67;100.00
2405;BME280;1213;43.206;27.922;2024-03-02T05:26:47;101116.38;;;8.71;100.00
2405;BME280;1213;43.206;27.922;2024-03-02T05:29:13;101119.16;;;8.83;100.00
2405;BME280;1213;43.206;27.922;2024-03-02T05:31:38;101121.56;;;8.88;100.00
2405;BME280;1213;43.206;27.922;2024-03-02T05:34:03;101115.25;;;8.92;100.00
2405;BME280;1213;43.206;27.922;2024-03-02T05:36:30;101107.19;;;8.95;100.00
2405;BME280;1213;43.206;27.922;2024-03-02T05:38:56;101104.66;;;8.94;100.00
2405;BME280;1213;43.206;27.922;2024-03-02T05:41:22;101117.25;;;9.03;100.00
2405;BME280;1213;43.206;27.922;2024-03-02T05:43:47;101114.13;;;8.96;100.00
2405;BME280;1213;43.206;27.922;2024-03-02T05:46:13;101101.88;;;8.97;100.00
2405;BME280;1213;43.206;27.922;2024-03-02T05:48:38;101104.06;;;9.04;100.00
2405;BME280;1213;43.206;27.922;2024-03-02T05:51:04;101097.91;;;9.05;100.00
2405;BME280;1213;43.206;27.922;2024-03-02T05:53:29;101101.03;;;9.12;100.00
2405;BME280;1213;43.206;27.922;2024-03-02T05:55:55;101101.72;;;9.15;100.00
2405;BME280;1213;43.206;27.922;2024-03-02T05:58:24;101105.75;;;9.21;100.00
2405;BME280;1213;43.206;27.922;2024-03-02T06:00:49;101099.53;;;9.24;100.00
2405;BME280;1213;43.206;27.922;2024-03-02T06:03:15;101100.69;;;9.34;100.00
2405;BME280;1213;43.206;27.922;2024-03-02T06:05:40;101103.63;;;9.43;100.00
2405;BME280;1213;43.206;27.922;2024-03-02T06:08:06;101101.94;;;9.58;100.00
2405;BME280;1213;43.206;27.922;2024-03-02T06:10:32;101104.13;;;9.66;100.00
2405;BME280;1213;43.206;27.922;2024-03-02T06:12:58;101104.72;;;9.71;100.00
2405;BME280;1213;43.206;27.922;2024-03-02T06:15:24;101103.69;;;9.73;100.00
2405;BME280;1213;43.206;27.922;2024-03-02T06:17:50;101099.66;;;9.82;100.00
2405;BME280;1213;43.206;27.922;2024-03-02T06:20:15;101100.00;;;9.92;100.00
2405;BME280;1213;43.206;27.922;2024-03-02T06:22:40;101100.00;;;9.92;100.00
2405;BME280;1213;43.206;27.922;2024-03-02T06:25:06;101103.28;;;9.95;100.00
2405;BME280;1213;43.206;27.922;2024-03-02T06:27:31;101097.19;;;9.95;100.00
2405;BME280;1213;43.206;27.922;2024-03-02T06:29:57;101093.56;;;10.12;100.00
2405;BME280;1213;43.206;27.922;2024-03-02T06:32:22;101097.19;;;10.25;100.00
2405;BME280;1213;43.206;27.922;2024-03-02T06:34:49;101098.41;;;10.34;100.00
2405;BME280;1213;43.206;27.922;2024-03-02T06:37:15;101099.00;;;10.53;100.00
2405;BME280;1213;43.206;27.922;2024-03-02T06:39:41;101103.03;;;10.73;100.00
2405;BME280;1213;43.206;27.922;2024-03-02T06:42:06;101097.31;;;10.80;100.00
2405;BME280;1213;43.206;27.922;2024-03-02T06:44:32;101093.75;;;10.81;100.00
2405;BME280;1213;43.206;27.922;2024-03-02T06:46:57;101095.13;;;10.87;100.00
2405;BME280;1213;43.206;27.922;2024-03-02T06:49:22;101102.00;;;10.90;100.00
2405;BME280;1213;43.206;27.922;2024-03-02T06:51:48;101104.81;;;11.01;100.00
2405;BME280;1213;43.206;27.922;2024-03-02T06:54:13;101097.72;;;11.16;100.00
2405;BME280;1213;43.206;27.922;2024-03-02T06:56:39;101098.41;;;11.19;100.00
2405;BME280;1213;43.206;27.922;2024-03-02T06:59:04;101096.41;;;11.23;100.00
2405;BME280;1213;43.206;27.922;2024-03-02T07:01:29;101099.28;;;11.32;100.00
2405;BME280;1213;43.206;27.922;2024-03-02T07:03:55;101104.09;;;11.53;100.00
2405;BME280;1213;43.206;27.922;2024-03-02T07:06:20;101108.66;;;11.63;100.00
2405;BME280;1213;43.206;27.922;2024-03-02T07:08:46;101109.38;;;11.80;100.00
2405;BME280;1213;43.206;27.922;2024-03-02T07:11:11;101110.47;;;11.90;100.00
2405;BME280;1213;43.206;27.922;2024-03-02T07:13:36;101113.53;;;11.97;100.00
2405;BME280;1213;43.206;27.922;2024-03-02T07:16:02;101112.81;;;11.94;100.00
2405;BME280;1213;43.206;27.922;2024-03-02T07:18:27;101105.03;;;12.06;100.00
2405;BME280;1213;43.206;27.922;2024-03-02T07:20:53;101105.03;;;12.06;100.00
2405;BME280;1213;43.206;27.922;2024-03-02T07:23:18;101104.16;;;11.92;100.00
2405;BME280;1213;43.206;27.922;2024-03-02T07:25:45;101106.16;;;11.89;100.00
2405;BME280;1213;43.206;27.922;2024-03-02T07:28:11;101105.31;;;12.01;100.00
2405;BME280;1213;43.206;27.922;2024-03-02T07:30:36;101097.22;;;12.04;100.00
2405;BME280;1213;43.206;27.922;2024-03-02T07:33:04;101098.09;;;12.30;100.00
2405;BME280;1213;43.206;27.922;2024-03-02T07:35:29;101093.78;;;12.29;100.00
2405;BME280;1213;43.206;27.922;2024-03-02T07:37:57;101093.34;;;12.35;100.00
2405;BME280;1213;43.206;27.922;2024-03-02T07:40:23;101094.09;;;12.25;100.00
2405;BME280;1213;43.206;27.922;2024-03-02T07:42:48;101093.59;;;12.32;100.00
2405;BME280;1213;43.206;27.922;2024-03-02T07:45:14;101093.06;;;12.40;100.00
2405;BME280;1213;43.206;27.922;2024-03-02T07:47:40;101101.16;;;12.49;100.00
2405;BME280;1213;43.206;27.922;2024-03-02T07:50:06;101097.88;;;12.59;100.00
2405;BME280;1213;43.206;27.922;2024-03-02T07:52:32;101102.19;;;12.60;100.00
2405;BME280;1213;43.206;27.922;2024-03-02T07:54:57;101101.66;;;12.67;100.00
2405;BME280;1213;43.206;27.922;2024-03-02T07:57:23;101101.78;;;12.66;100.00
2405;BME280;1213;43.206;27.922;2024-03-02T07:59:48;101100.19;;;12.76;100.00
2405;BME280;1213;43.206;27.922;2024-03-02T08:02:14;101097.13;;;12.82;100.00
2405;BME280;1213;43.206;27.922;2024-03-02T08:04:40;101095.75;;;12.76;100.00
2405;BME280;1213;43.206;27.922;2024-03-02T08:07:06;101097.66;;;12.62;100.00
2405;BME280;1213;43.206;27.922;2024-03-02T08:09:31;101104.09;;;12.58;100.00
2405;BME280;1213;43.206;27.922;2024-03-02T08:11:56;101103.16;;;12.59;100.00
2405;BME280;1213;43.206;27.922;2024-03-02T08:14:23;101099.75;;;12.82;100.00
2405;BME280;1213;43.206;27.922;2024-03-02T08:16:49;101091.72;;;12.96;100.00
2405;BME280;1213;43.206;27.922;2024-03-02T08:19:14;101102.91;;;12.87;100.00
2405;BME280;1213;43.206;27.922;2024-03-02T08:21:40;101100.09;;;13.14;100.00
2405;BME280;1213;43.206;27.922;2024-03-02T08:24:06;101104.50;;;13.39;100.00
2405;BME280;1213;43.206;27.922;2024-03-02T08:26:31;101094.09;;;13.49;100.00
2405;BME280;1213;43.206;27.922;2024-03-02T08:29:00;101096.16;;;13.80;100.00
2405;BME280;1213;43.206;27.922;2024-03-02T08:31:27;101096.75;;;14.08;100.00
2405;BME280;1213;43.206;27.922;2024-03-02T08:33:52;101097.06;;;14.03;100.00
2405;BME280;1213;43.206;27.922;2024-03-02T08:36:18;101100.72;;;14.13;100.00
2405;BME280;1213;43.206;27.922;2024-03-02T08:38:45;101100.72;;;14.25;100.00
2405;BME280;1213;43.206;27.922;2024-03-02T08:41:10;101094.56;;;14.70;100.00
2405;BME280;1213;43.206;27.922;2024-03-02T08:43:38;101098.16;;;14.81;100.00
2405;BME280;1213;43.206;27.922;2024-03-02T08:46:05;101096.13;;;14.73;100.00
2405;BME280;1213;43.206;27.922;2024-03-02T08:48:30;101116.91;;;14.55;100.00
2405;BME280;1213;43.206;27.922;2024-03-02T08:50:56;101117.53;;;14.81;100.00
2405;BME280;1213;43.206;27.922;2024-03-02T08:53:21;101116.78;;;15.02;100.00
2405;BME280;1213;43.206;27.922;2024-03-02T08:55:46;101121.09;;;15.25;100.00
2405;BME280;1213;43.206;27.922;2024-03-02T08:58:12;101126.63;;;15.22;100.00
2405;BME280;1213;43.206;27.922;2024-03-02T09:00:38;101126.16;;;15.28;100.00
2405;BME280;1213;43.206;27.922;2024-03-02T09:03:03;101128.75;;;15.39;100.00
2405;BME280;1213;43.206;27.922;2024-03-02T09:05:29;101127.66;;;15.53;100.00
2405;BME280;1213;43.206;27.922;2024-03-02T09:07:54;101119.97;;;15.50;100.00
2405;BME280;1213;43.206;27.922;2024-03-02T09:10:20;101120.81;;;15.50;100.00
2405;BME280;1213;43.206;27.922;2024-03-02T09:12:46;101115.03;;;15.45;100.00
2405;BME280;1213;43.206;27.922;2024-03-02T09:15:11;101113.47;;;15.43;100.00
2405;BME280;1213;43.206;27.922;2024-03-02T09:17:37;101111.50;;;15.67;100.00
2405;BME280;1213;43.206;27.922;2024-03-02T09:20:03;101116.53;;;15.70;100.00
2405;BME280;1213;43.206;27.922;2024-03-02T09:22:29;101103.56;;;15.67;100.00
2405;BME280;1213;43.206;27.922;2024-03-02T09:24:55;101109.69;;;15.68;100.00
2405;BME280;1213;43.206;27.922;2024-03-02T09:27:21;101110.03;;;15.74;100.00
2405;BME280;1213;43.206;27.922;2024-03-02T09:29:47;101105.50;;;15.65;100.00
2405;BME280;1213;43.206;27.922;2024-03-02T09:32:13;101104.94;;;15.82;100.00
2405;BME280;1213;43.206;27.922;2024-03-02T09:34:39;101109.41;;;15.82;100.00
2405;BME280;1213;43.206;27.922;2024-03-02T09:37:05;101104.13;;;16.03;100.00
2405;BME280;1213;43.206;27.922;2024-03-02T09:39:32;101102.44;;;16.23;100.00
2405;BME280;1213;43.206;27.922;2024-03-02T09:41:59;101108.47;;;16.25;100.00
2405;BME280;1213;43.206;27.922;2024-03-02T09:44:25;101097.19;;;15.91;100.00
2405;BME280;1213;43.206;27.922;2024-03-02T09:46:51;101103.56;;;15.67;100.00
2405;BME280;1213;43.206;27.922;2024-03-02T09:49:17;101100.66;;;15.70;100.00
2405;BME280;1213;43.206;27.922;2024-03-02T09:51:47;101095.75;;;15.66;100.00
2405;BME280;1213;43.206;27.922;2024-03-02T09:54:18;101096.81;;;15.63;100.00
2405;BME280;1213;43.206;27.922;2024-03-02T09:56:44;101095.97;;;15.63;100.00
2405;BME280;1213;43.206;27.922;2024-03-02T09:59:09;101097.47;;;15.44;100.00
2405;BME280;1213;43.206;27.922;2024-03-02T10:01:35;101094.31;;;15.50;100.00
2405;BME280;1213;43.206;27.922;2024-03-02T10:04:01;101089.94;;;15.61;100.00
2405;BME280;1213;43.206;27.922;2024-03-02T10:06:28;101096.00;;;15.51;100.00
2405;BME280;1213;43.206;27.922;2024-03-02T10:08:55;101100.53;;;15.17;100.00
2405;BME280;1213;43.206;27.922;2024-03-02T10:11:31;101099.06;;;15.36;100.00
2405;BME280;1213;43.206;27.922;2024-03-02T10:14:11;101088.91;;;15.52;100.00
2405;BME280;1213;43.206;27.922;2024-03-02T10:16:41;101089.81;;;15.73;100.00
2405;BME280;1213;43.206;27.922;2024-03-02T10:21:51;101080.81;;;17.19;100.00
2405;BME280;1213;43.206;27.922;2024-03-02T10:24:18;101075.50;;;17.29;100.00
2405;BME280;1213;43.206;27.922;2024-03-02T10:26:43;101071.78;;;17.80;100.00
2405;BME280;1213;43.206;27.922;2024-03-02T10:29:10;101065.41;;;18.29;100.00
2405;BME280;1213;43.206;27.922;2024-03-02T10:31:40;101065.28;;;18.21;100.00
2405;BME280;1213;43.206;27.922;2024-03-02T10:34:06;101063.78;;;17.89;100.00
2405;BME280;1213;43.206;27.922;2024-03-02T10:36:36;101059.03;;;17.83;100.00
2405;BME280;1213;43.206;27.922;2024-03-02T10:39:05;101059.75;;;17.85;100.00
2405;BME280;1213;43.206;27.922;2024-03-02T10:41:33;101058.22;;;17.54;100.00
2405;BME280;1213;43.206;27.922;2024-03-02T10:44:01;101056.81;;;16.80;100.00
2405;BME280;1213;43.206;27.922;2024-03-02T10:46:28;101054.69;;;16.74;100.00
2405;BME280;1213;43.206;27.922;2024-03-02T10:48:57;101050.84;;;16.57;100.00
2405;BME280;1213;43.206;27.922;2024-03-02T10:51:30;101046.09;;;16.61;100.00
2405;BME280;1213;43.206;27.922;2024-03-02T10:54:02;101050.59;;;16.40;100.00
2405;BME280;1213;43.206;27.922;2024-03-02T10:56:33;101042.56;;;16.81;100.00
2405;BME280;1213;43.206;27.922;2024-03-02T10:59:34;101034.09;;;17.07;100.00
2405;BME280;1213;43.206;27.922;2024-03-02T11:02:17;101031.09;;;16.81;100.00
2405;BME280;1213;43.206;27.922;2024-03-02T11:04:44;101033.25;;;17.06;100.00
2405;BME280;1213;43.206;27.922;2024-03-02T11:07:13;101032.31;;;17.17;100.00
2405;BME280;1213;43.206;27.922;2024-03-02T11:09:47;101038.03;;;17.51;100.00
2405;BME280;1213;43.206;27.922;2024-03-02T11:12:22;101038.19;;;17.50;100.00
2405;BME280;1213;43.206;27.922;2024-03-02T11:14:48;101038.03;;;17.22;100.00
2405;BME280;1213;43.206;27.922;2024-03-02T11:17:17;101037.72;;;16.96;100.00
2405;BME280;1213;43.206;27.922;2024-03-02T11:19:44;101039.88;;;16.72;100.00
2405;BME280;1213;43.206;27.922;2024-03-02T11:22:11;101039.97;;;16.40;100.00
2405;BME280;1213;43.206;27.922;2024-03-02T11:24:37;101041.91;;;16.28;100.00
2405;BME280;1213;43.206;27.922;2024-03-02T11:27:04;101045.88;;;16.13;100.00
2405;BME280;1213;43.206;27.922;2024-03-02T11:32:16;101047.91;;;15.35;100.00
2405;BME280;1213;43.206;27.922;2024-03-02T11:34:44;101044.09;;;15.28;100.00
2405;BME280;1213;43.206;27.922;2024-03-02T11:37:13;101035.19;;;15.61;100.00
2405;BME280;1213;43.206;27.922;2024-03-02T11:39:39;101034.25;;;16.04;100.00
2405;BME280;1213;43.206;27.922;2024-03-02T11:42:06;101027.69;;;16.08;100.00
2405;BME280;1213;43.206;27.922;2024-03-02T11:44:34;101029.44;;;16.49;100.00
2405;BME280;1213;43.206;27.922;2024-03-02T11:47:01;101024.59;;;16.64;100.00
2405;BME280;1213;43.206;27.922;2024-03-02T11:52:12;101032.25;;;16.98;100.00
2405;BME280;1213;43.206;27.922;2024-03-02T11:54:39;101020.81;;;17.07;100.00
2405;BME280;1213;43.206;27.922;2024-03-02T11:57:06;101016.38;;;17.17;100.00
2405;BME280;1213;43.206;27.922;2024-03-02T11:59:31;101017.75;;;17.11;100.00
2405;BME280;1213;43.206;27.922;2024-03-02T12:01:58;101017.75;;;17.21;100.00
2405;BME280;1213;43.206;27.922;2024-03-02T12:04:24;101012.19;;;17.24;100.00
2405;BME280;1213;43.206;27.922;2024-03-02T12:06:56;101015.81;;;17.33;100.00
2405;BME280;1213;43.206;27.922;2024-03-02T12:09:25;101008.66;;;17.14;100.00
2405;BME280;1213;43.206;27.922;2024-03-02T12:12:11;101013.28;;;17.22;100.00
2405;BME280;1213;43.206;27.922;2024-03-02T12:14:38;101003.06;;;16.88;100.00
2405;BME280;1213;43.206;27.922;2024-03-02T12:17:06;100998.59;;;16.58;100.00
2405;BME280;1213;43.206;27.922;2024-03-02T12:19:33;101009.19;;;16.48;100.00
2405;BME280;1213;43.206;27.922;2024-03-02T12:21:59;101001.84;;;16.31;100.00
2405;BME280;1213;43.206;27.922;2024-03-02T12:24:29;101009.09;;;16.29;100.00
2405;BME280;1213;43.206;27.922;2024-03-02T12:26:55;101003.53;;;16.32;100.00
2405;BME280;1213;43.206;27.922;2024-03-02T12:29:22;101011.75;;;16.29;100.00
2405;BME280;1213;43.206;27.922;2024-03-02T12:31:50;101005.97;;;16.14;100.00
2405;BME280;1213;43.206;27.922;2024-03-02T12:34:17;101006.91;;;16.34;100.00
2405;BME280;1213;43.206;27.922;2024-03-02T12:36:43;101007.25;;;16.20;100.00
2405;BME280;1213;43.206;27.922;2024-03-02T12:39:09;101009.91;;;16.20;100.00
2405;BME280;1213;43.206;27.922;2024-03-02T12:41:37;101022.94;;;15.81;100.00
2405;BME280;1213;43.206;27.922;2024-03-02T12:44:04;101010.06;;;15.97;100.00
2405;BME280;1213;43.206;27.922;2024-03-02T12:46:31;101014.75;;;15.94;100.00
2405;BME280;1213;43.206;27.922;2024-03-02T12:48:56;101017.03;;;15.77;100.00
2405;BME280;1213;43.206;27.922;2024-03-02T12:51:22;101026.38;;;15.61;100.00
2405;BME280;1213;43.206;27.922;2024-03-02T12:53:55;101024.53;;;15.40;100.00
2405;BME280;1213;43.206;27.922;2024-03-02T12:56:21;101030.16;;;15.04;100.00
2405;BME280;1213;43.206;27.922;2024-03-02T12:58:46;101027.03;;;15.10;100.00
2405;BME280;1213;43.206;27.922;2024-03-02T13:01:14;101025.78;;;14.70;100.00
2405;BME280;1213;43.206;27.922;2024-03-02T13:03:40;101026.75;;;14.58;100.00